Time;durP1;ratioP1;P1;durP2;ratioP2;P2;SDS_P1;SDS_P2;PMS_P1;PMS_P2;Temp;Humidity;BMP_temperature;BMP_pressure;BME280_temperature;BME280_humidity;BME280_pressure;Samples;Min_cycle;Max_cycle;Signal;HPM_P1;HPM_P2
2022/05/13 00:01:32;;;;;;;5.68;3.17;;;;;;;17.88;93.06;99000.31;5063297;28;20115;-66
2022/05/13 00:03:57;;;;;;;5.75;3.33;;;;;;;17.88;93.03;98992.09;5078199;28;20115;-65
2022/05/13 00:06:23;;;;;;;6.60;3.70;;;;;;;17.92;92.36;98997.91;5072153;28;20051;-66
2022/05/13 00:08:49;;;;;;;6.88;3.40;;;;;;;17.94;92.64;98990.28;5065827;28;20075;-66
2022/05/13 00:11:14;;;;;;;6.05;3.65;;;;;;;17.86;93.10;98980.56;5079783;28;20386;-65
2022/05/13 00:13:39;;;;;;;6.60;3.33;;;;;;;17.88;93.09;98988.56;5067960;28;20032;-66
2022/05/13 00:16:05;;;;;;;4.40;3.35;;;;;;;17.89;92.80;98984.72;5063207;28;20029;-66
2022/05/13 00:18:32;;;;;;;4.95;3.10;;;;;;;17.89;92.81;98985.56;5060763;28;20032;-66
2022/05/13 00:20:58;;;;;;;7.15;2.97;;;;;;;17.98;92.04;98983.25;5087719;28;20478;-66
2022/05/13 00:23:24;;;;;;;4.32;3.20;;;;;;;17.90;92.44;98991.88;5071895;28;20046;-66
2022/05/13 00:25:49;;;;;;;6.25;3.25;;;;;;;17.90;92.07;98976.28;5064337;28;20027;-66
2022/05/13 00:28:15;;;;;;;7.25;3.83;;;;;;;17.98;92.22;98983.25;5065612;28;20116;-66
2022/05/13 00:30:42;;;;;;;5.88;3.85;;;;;;;17.90;93.23;98983.66;5079416;28;20119;-64
2022/05/13 00:33:09;;;;;;;6.28;3.90;;;;;;;17.85;94.23;98992.59;5072029;28;20538;-63
2022/05/13 00:35:36;;;;;;;5.38;3.75;;;;;;;17.81;94.29;98985.13;5070534;28;20081;-64
2022/05/13 00:38:01;;;;;;;6.97;3.50;;;;;;;17.81;94.38;98982.38;5073475;28;20111;-65
2022/05/13 00:40:27;;;;;;;6.43;3.65;;;;;;;17.82;94.50;98984.91;5078057;28;20433;-64
2022/05/13 00:42:58;;;;;;;7.00;4.15;;;;;;;17.81;94.17;98993.34;5069103;28;20024;-65
2022/05/13 00:45:24;;;;;;;5.75;3.60;;;;;;;17.70;94.89;98973.97;5064526;28;20130;-67
2022/05/13 00:47:49;;;;;;;5.78;4.07;;;;;;;17.71;94.11;98978.38;5065248;28;20099;-68
2022/05/13 00:50:15;;;;;;;6.40;3.45;;;;;;;17.79;93.50;98988.13;5065987;28;20040;-67
2022/05/13 00:52:44;;;;;;;6.30;3.72;;;;;;;17.82;93.58;98978.59;5067172;28;20029;-67
2022/05/13 00:55:12;;;;;;;;;;;;;;;17.84;93.01;98980.00;5071081;28;20032;-65
2022/05/13 00:57:39;;;;;;;7.40;3.53;;;;;;;17.80;92.38;98975.28;5071517;28;19958;-65
2022/05/13 01:00:11;;;;;;;4.95;3.60;;;;;;;17.80;92.06;98976.09;5070712;28;20366;-65
2022/05/13 01:02:36;;;;;;;7.15;3.75;;;;;;;17.81;91.68;98971.44;5081954;28;20024;-66
2022/05/13 01:05:05;;;;;;;6.10;3.65;;;;;;;17.81;91.69;98972.28;5071809;28;20028;-65
2022/05/13 01:07:32;;;;;;;6.43;3.40;;;;;;;17.81;91.46;98976.91;5064879;28;20516;-66
2022/05/13 01:10:00;;;;;;;6.43;3.50;;;;;;;17.79;91.17;98974.44;5066817;28;20035;-66
2022/05/13 01:12:37;;;;;;;4.97;3.25;;;;;;;17.79;91.10;98968.97;5073367;28;20056;-66
2022/05/13 01:15:09;;;;;;;3.55;2.78;;;;;;;17.62;90.92;98936.06;5076351;28;20020;-65
2022/05/13 01:20:28;;;;;;;5.45;3.13;;;;;;;17.70;90.89;98959.47;5086765;28;20491;-66
2022/05/13 01:22:59;;;;;;;4.25;3.00;;;;;;;17.72;90.65;98957.31;5062966;28;20521;-65
2022/05/13 01:25:28;;;;;;;4.40;3.00;;;;;;;17.71;90.67;98961.09;5073276;28;20432;-66
2022/05/13 01:27:56;;;;;;;9.48;3.30;;;;;;;17.72;90.47;98963.59;5073518;28;20095;-66
2022/05/13 01:30:27;;;;;;;5.60;2.88;;;;;;;17.66;89.64;98953.66;5079838;28;20146;-66
2022/05/13 01:32:53;;;;;;;8.15;3.10;;;;;;;17.70;90.48;98957.53;5070234;28;20020;-66
2022/05/13 01:35:20;;;;;;;3.38;2.47;;;;;;;17.67;91.56;98966.25;5071596;28;20035;-66
2022/05/13 01:37:46;;;;;;;4.32;3.30;;;;;;;17.64;93.00;98979.59;5082714;28;20032;-67
2022/05/13 01:40:12;;;;;;;4.03;2.80;;;;;;;17.60;94.47;98975.69;5070197;28;20025;-67
2022/05/13 01:42:37;;;;;;;4.97;3.10;;;;;;;17.55;96.46;98981.06;5063189;28;20033;-66
2022/05/13 01:45:04;;;;;;;4.95;3.17;;;;;;;17.46;98.75;98969.69;5070768;28;20016;-66
2022/05/13 01:47:29;;;;;;;7.38;3.63;;;;;;;17.38;100.00;98975.53;5074624;28;20406;-66
2022/05/13 01:49:56;;;;;;;6.30;2.97;;;;;;;17.17;100.00;98952.44;5074600;28;20024;-64
2022/05/13 01:52:22;;;;;;;5.95;3.55;;;;;;;17.20;100.00;98980.09;5065537;28;20025;-65
2022/05/13 01:54:47;;;;;;;7.32;3.05;;;;;;;17.17;100.00;98988.81;5067687;28;20035;-65
2022/05/13 01:57:12;;;;;;;5.35;3.30;;;;;;;17.18;100.00;98984.97;5080227;28;21732;-65
2022/05/13 01:59:38;;;;;;;5.05;3.00;;;;;;;17.20;100.00;98977.38;5089437;28;20459;-65
2022/05/13 02:02:03;;;;;;;7.30;3.05;;;;;;;17.15;100.00;98985.47;5073340;28;20466;-65
2022/05/13 02:04:29;;;;;;;5.18;2.97;;;;;;;17.14;100.00;98988.47;5065839;28;20109;-65
2022/05/13 02:06:54;;;;;;;5.65;3.03;;;;;;;17.12;100.00;98991.44;5077553;28;20016;-65
2022/05/13 02:09:20;;;;;;;6.43;3.28;;;;;;;17.07;100.00;98980.38;5094711;28;20470;-65
2022/05/13 02:11:45;;;;;;;7.00;3.17;;;;;;;17.08;100.00;98911.81;5070018;28;20043;-65
2022/05/13 02:14:18;;;;;;;8.88;3.10;;;;;;;17.21;98.46;98899.75;5063881;28;20043;-65
2022/05/13 02:16:43;;;;;;;6.22;3.42;;;;;;;17.05;99.75;98920.47;5073898;28;20085;-65
2022/05/13 02:19:09;;;;;;;5.85;3.08;;;;;;;16.91;100.00;98953.81;5082955;28;20238;-64
2022/05/13 02:21:35;;;;;;;6.82;2.70;;;;;;;16.94;100.00;98983.38;5084951;28;20027;-65
2022/05/13 02:24:00;;;;;;;5.95;2.95;;;;;;;16.81;100.00;98977.09;5068527;28;20036;-65
2022/05/13 02:26:26;;;;;;;5.95;3.13;;;;;;;16.78;100.00;98976.75;5067454;28;20382;-65
2022/05/13 02:28:51;;;;;;;6.57;2.83;;;;;;;16.81;100.00;98968.06;5075263;28;20389;-65
2022/05/13 02:31:16;;;;;;;6.22;3.17;;;;;;;16.80;100.00;98975.44;5068811;28;20020;-65
2022/05/13 02:33:43;;;;;;;8.73;2.95;;;;;;;16.80;100.00;98967.25;5065698;28;20107;-65
2022/05/13 02:36:11;;;;;;;7.78;3.35;;;;;;;16.80;100.00;98961.78;5072207;28;20523;-65
2022/05/13 02:38:37;;;;;;;4.47;3.08;;;;;;;16.80;100.00;98972.72;5073401;28;20020;-65
2022/05/13 02:41:12;;;;;;;6.10;3.03;;;;;;;16.80;100.00;98986.38;5077257;28;20074;-66
2022/05/13 02:43:41;;;;;;;5.03;3.20;;;;;;;16.81;100.00;98989.94;5069495;28;20042;-65
2022/05/13 02:46:07;;;;;;;4.80;3.33;;;;;;;16.79;100.00;98982.00;5066793;28;20025;-65
2022/05/13 02:48:32;;;;;;;9.00;3.45;;;;;;;16.74;100.00;98979.13;5069742;28;20070;-65
2022/05/13 02:50:58;;;;;;;7.32;2.90;;;;;;;16.75;100.00;98990.88;5080506;22;20045;-65
2022/05/13 02:53:24;;;;;;;7.60;3.03;;;;;;;16.75;100.00;98986.22;5051853;28;20295;-65
2022/05/13 02:55:49;;;;;;;6.07;3.35;;;;;;;16.73;100.00;98987.53;5045307;28;22356;-66
2022/05/13 02:58:15;;;;;;;5.07;3.08;;;;;;;16.81;100.00;98987.19;5048186;28;20021;-65
2022/05/13 03:00:41;;;;;;;5.10;3.33;;;;;;;16.89;100.00;98981.38;5052483;28;20025;-65
2022/05/13 03:03:06;;;;;;;5.15;3.42;;;;;;;16.73;100.00;98968.41;5051661;28;20024;-65
2022/05/13 03:05:35;;;;;;;4.85;3.33;;;;;;;16.80;100.00;98988.28;5050691;28;20028;-65
2022/05/13 03:08:01;;;;;;;5.03;3.80;;;;;;;16.60;100.00;98956.66;5052707;28;20032;-65
2022/05/13 03:10:32;;;;;;;4.65;3.92;;;;;;;16.77;100.00;98986.84;5047582;28;20024;-65
2022/05/13 03:12:58;;;;;;;6.72;3.80;;;;;;;16.69;100.00;98981.72;5051083;28;20029;-65
2022/05/13 03:15:25;;;;;;;7.53;3.90;;;;;;;16.51;100.00;98974.50;5050854;28;20524;-65
2022/05/13 03:17:50;;;;;;;6.45;3.90;;;;;;;16.62;100.00;98983.75;5051585;28;20211;-65
2022/05/13 03:20:20;;;;;;;7.53;3.78;;;;;;;16.63;100.00;98988.13;5052622;28;20111;-65
2022/05/13 03:22:47;;;;;;;5.47;3.38;;;;;;;16.55;100.00;98972.09;5053373;28;20060;-65
2022/05/13 03:25:13;;;;;;;10.25;3.60;;;;;;;16.54;100.00;98968.53;5048728;28;20029;-65
2022/05/13 03:27:39;;;;;;;7.70;3.90;;;;;;;16.58;100.00;98979.81;5052740;28;20035;-65
2022/05/13 03:30:07;;;;;;;4.78;3.63;;;;;;;16.61;100.00;98969.25;5052376;28;20025;-65
2022/05/13 03:32:32;;;;;;;5.40;3.60;;;;;;;16.60;100.00;98962.13;5052621;28;20029;-65
2022/05/13 03:34:57;;;;;;;6.35;3.83;;;;;;;16.48;100.00;98960.47;5048255;28;20021;-65
2022/05/13 03:37:22;;;;;;;7.47;3.30;;;;;;;16.37;100.00;98973.91;5053311;28;20466;-65
2022/05/13 03:39:48;;;;;;;6.05;4.03;;;;;;;16.36;100.00;98977.69;5051588;28;20131;-64
2022/05/13 03:42:13;;;;;;;7.18;3.97;;;;;;;16.25;100.00;98955.84;5056006;28;20017;-65
2022/05/13 03:44:39;;;;;;;6.18;3.80;;;;;;;16.39;100.00;98970.91;5048573;28;20549;-65
2022/05/13 03:47:05;;;;;;;6.00;3.55;;;;;;;16.42;100.00;98970.44;5053284;28;20110;-65
2022/05/13 03:49:30;;;;;;;5.25;3.38;;;;;;;16.38;100.00;98983.75;5052218;28;20055;-65
2022/05/13 03:51:55;;;;;;;4.68;3.10;;;;;;;16.33;100.00;98983.63;5039907;28;20104;-66
2022/05/13 03:54:21;;;;;;;4.20;3.28;;;;;;;16.36;100.00;98974.13;5045578;28;20059;-65
2022/05/13 03:56:46;;;;;;;5.43;3.83;;;;;;;16.38;100.00;98970.09;5052232;28;20079;-65
2022/05/13 03:59:11;;;;;;;6.82;3.70;;;;;;;16.31;100.00;98979.47;5053102;28;20033;-65
2022/05/13 04:01:37;;;;;;;8.82;3.92;;;;;;;16.24;100.00;98976.84;5052353;28;20024;-65
2022/05/13 04:04:03;;;;;;;6.80;3.88;;;;;;;16.21;100.00;98977.31;5050047;28;20021;-65
2022/05/13 04:09:12;;;;;;;6.78;4.20;;;;;;;16.17;100.00;98984.31;5053025;28;20032;-66
2022/05/13 04:11:40;;;;;;;9.88;5.13;;;;;;;16.11;100.00;98979.78;5050603;28;20025;-66
2022/05/13 04:16:54;;;;;;;14.50;4.72;;;;;;;16.09;100.00;98990.94;5017564;28;20041;-65
2022/05/13 04:19:19;;;;;;;8.25;4.45;;;;;;;16.11;100.00;98990.69;5041274;28;20029;-65
2022/05/13 04:21:46;;;;;;;10.40;4.97;;;;;;;16.09;100.00;98992.84;5052079;28;20024;-66
2022/05/13 04:24:19;;;;;;;7.50;4.65;;;;;;;16.11;100.00;98993.44;5043667;28;20052;-72
2022/05/13 04:26:45;;;;;;;7.78;4.95;;;;;;;15.99;100.00;98983.34;5028750;28;20484;-73
2022/05/13 04:29:11;;;;;;;8.63;4.57;;;;;;;16.02;100.00;98981.22;5054982;28;20033;-73
2022/05/13 04:31:42;;;;;;;8.32;4.85;;;;;;;16.14;100.00;99001.19;5051850;28;20286;-73
2022/05/13 04:34:08;;;;;;;10.70;4.20;;;;;;;16.11;100.00;98996.16;5066026;28;20049;-74
2022/05/13 04:36:41;;;;;;;10.07;4.70;;;;;;;16.15;100.00;99014.56;5076511;28;20040;-71
2022/05/13 04:39:07;;;;;;;8.68;4.10;;;;;;;16.25;100.00;99013.19;5077721;28;20023;-70
2022/05/13 04:44:17;;;;;;;7.03;4.35;;;;;;;16.27;100.00;99027.41;5072072;28;20158;-73
2022/05/13 04:46:43;;;;;;;7.47;4.50;;;;;;;16.07;100.00;98973.97;5059753;28;20076;-73
2022/05/13 04:49:09;;;;;;;8.90;4.40;;;;;;;16.41;100.00;99024.22;5068603;28;20539;-74
2022/05/13 04:51:36;;;;;;;7.22;4.05;;;;;;;16.50;100.00;99029.34;5034591;28;20025;-74
2022/05/13 04:54:02;;;;;;;10.90;4.07;;;;;;;16.42;100.00;99008.66;5052006;28;20059;-74
2022/05/13 04:56:30;;;;;;;5.82;3.70;;;;;;;16.61;100.00;99023.03;5045470;28;20017;-74
2022/05/13 04:58:56;;;;;;;6.88;4.30;;;;;;;16.55;100.00;99026.72;5047186;28;20025;-73
2022/05/13 05:01:23;;;;;;;6.90;4.40;;;;;;;16.47;100.00;99021.63;5048139;28;20020;-72
2022/05/13 05:03:49;;;;;;;13.52;3.85;;;;;;;16.48;100.00;99018.66;5047996;28;20098;-73
2022/05/13 05:06:16;;;;;;;8.82;4.07;;;;;;;16.47;100.00;99005.22;5052163;28;20025;-70
2022/05/13 05:08:42;;;;;;;7.68;4.18;;;;;;;16.65;100.00;99022.34;5035133;28;20055;-70
2022/05/13 05:11:09;;;;;;;5.30;3.40;;;;;;;16.75;100.00;99019.00;5051047;28;20029;-72
2022/05/13 05:13:47;;;;;;;4.13;2.92;;;;;;;16.85;100.00;99021.19;5050856;28;20099;-70
2022/05/13 05:16:15;;;;;;;6.07;3.47;;;;;;;16.99;100.00;99030.78;5051137;28;20025;-72
2022/05/13 05:18:41;;;;;;;14.13;5.28;;;;;;;17.05;100.00;99034.47;5046809;28;20029;-72
2022/05/13 05:21:08;;;;;;;6.60;3.85;;;;;;;17.13;100.00;99030.53;5051195;28;20025;-69
2022/05/13 05:23:35;;;;;;;5.72;3.80;;;;;;;17.04;100.00;99016.41;5051840;28;20028;-72
2022/05/13 05:26:01;;;;;;;6.88;3.60;;;;;;;17.23;100.00;99033.47;5051489;28;20033;-71
2022/05/13 05:28:27;;;;;;;11.35;4.32;;;;;;;17.41;100.00;99035.22;5047607;28;20067;-69
2022/05/13 05:30:54;;;;;;;8.07;3.60;;;;;;;17.48;93.89;99031.28;5051586;28;20028;-69
2022/05/13 05:33:20;;;;;;;6.05;3.00;;;;;;;17.69;94.54;99032.50;5050954;28;20029;-69
2022/05/13 05:35:45;;;;;;;5.32;2.78;;;;;;;17.89;93.22;99032.13;5051409;28;20041;-69
2022/05/13 05:38:11;;;;;;;5.15;2.60;;;;;;;17.88;85.65;99032.34;5052124;28;20104;-71
2022/05/13 05:40:38;;;;;;;5.40;2.78;;;;;;;17.80;85.68;99030.00;5049987;28;20505;-71
2022/05/13 05:43:06;;;;;;;7.05;3.03;;;;;;;17.82;88.48;99039.63;5049077;28;20033;-70
2022/05/13 05:45:31;;;;;;;7.15;2.90;;;;;;;17.67;87.73;99036.56;5049079;28;20028;-69
2022/05/13 05:47:57;;;;;;;7.18;2.90;;;;;;;17.67;87.66;99045.59;5049921;28;20025;-69
2022/05/13 05:50:22;;;;;;;7.38;3.17;;;;;;;17.60;88.39;99050.38;5048812;28;20025;-70
2022/05/13 05:52:47;;;;;;;10.57;2.95;;;;;;;17.54;89.77;99048.63;5049110;28;20115;-68
2022/05/13 05:58:04;;;;;;;6.05;3.45;;;;;;;17.42;92.68;99051.41;5055445;28;20063;-68
2022/05/13 06:00:32;;;;;;;4.00;2.97;;;;;;;17.42;92.54;99054.13;5052070;28;20043;-65
2022/05/13 06:02:57;;;;;;;6.18;3.17;;;;;;;17.51;91.88;99055.41;5049986;28;20021;-69
2022/05/13 06:05:24;;;;;;;6.57;3.30;;;;;;;17.57;91.05;99063.72;5050167;28;20116;-69
2022/05/13 06:07:50;;;;;;;7.95;3.45;;;;;;;17.56;90.23;99051.94;5046939;28;20040;-70
2022/05/13 06:10:17;;;;;;;6.40;3.83;;;;;;;17.63;89.67;99062.75;5052600;28;20079;-70
2022/05/13 06:12:42;;;;;;;6.53;2.83;;;;;;;17.52;90.33;99061.69;5052451;28;20029;-71
2022/05/13 06:15:09;;;;;;;6.18;3.28;;;;;;;17.47;91.09;99069.81;5044898;28;20493;-72
2022/05/13 06:17:34;;;;;;;8.32;2.85;;;;;;;17.55;91.85;99066.69;5055076;28;20103;-73
2022/05/13 06:20:05;;;;;;;7.25;3.13;;;;;;;17.67;90.85;99064.75;5054899;28;20053;-72
2022/05/13 06:22:30;;;;;;;5.20;3.10;;;;;;;17.84;90.42;99059.38;5054203;28;20071;-73
2022/05/13 06:24:56;;;;;;;4.53;3.05;;;;;;;17.92;87.24;99059.00;5056248;28;20025;-70
2022/05/13 06:27:21;;;;;;;3.95;2.35;;;;;;;18.16;86.02;99076.13;5050866;28;20028;-71
2022/05/13 06:29:47;;;;;;;11.07;2.70;;;;;;;18.31;83.14;99070.09;5053568;28;20029;-71
2022/05/13 06:32:12;;;;;;;5.07;2.80;;;;;;;18.47;82.19;99078.56;5051599;28;20029;-67
2022/05/13 06:34:38;;;;;;;8.38;2.70;;;;;;;18.70;81.46;99075.66;5054430;28;20036;-68
2022/05/13 06:37:03;;;;;;;4.55;2.63;;;;;;;18.87;79.56;99070.22;5052116;28;20025;-68
2022/05/13 06:39:28;;;;;;;5.50;2.38;;;;;;;19.05;76.39;99074.59;5051344;28;20021;-68
2022/05/13 06:41:54;;;;;;;8.70;2.30;;;;;;;19.20;76.29;99066.59;5049259;28;20025;-68
2022/05/13 06:44:19;;;;;;;7.53;1.98;;;;;;;19.39;74.29;99064.34;5054210;28;20020;-68
2022/05/13 06:46:44;;;;;;;4.28;2.05;;;;;;;19.75;70.04;99064.81;5053201;28;20013;-68
2022/05/13 06:49:11;;;;;;;3.00;1.85;;;;;;;20.29;67.08;99069.50;5053736;28;20032;-68
2022/05/13 06:51:37;;;;;;;3.70;1.60;;;;;;;21.03;62.90;99063.22;5055844;28;20398;-68
2022/05/13 06:54:07;;;;;;;7.20;2.15;;;;;;;21.12;59.70;99077.34;5055743;28;20514;-68
2022/05/13 06:56:35;;;;;;;9.18;1.60;;;;;;;21.15;60.78;99069.38;5055682;28;20075;-68
2022/05/13 06:59:02;;;;;;;11.20;2.08;;;;;;;21.23;60.72;99076.28;5055555;28;20031;-68
2022/05/13 07:01:27;;;;;;;5.85;1.63;;;;;;;21.27;60.02;99065.56;5053777;28;20510;-68
2022/05/13 07:03:52;;;;;;;6.03;1.90;;;;;;;21.89;58.41;99073.03;5055519;28;20024;-68
2022/05/13 07:06:18;;;;;;;7.80;1.80;;;;;;;22.75;55.76;99077.03;5053782;28;20021;-68
2022/05/13 07:08:43;;;;;;;5.95;1.92;;;;;;;22.95;53.72;99085.28;5054117;28;20067;-69
2022/05/13 07:11:08;;;;;;;9.63;1.88;;;;;;;22.67;52.88;99091.38;5052051;28;20025;-68
2022/05/13 07:13:34;;;;;;;7.85;1.98;;;;;;;21.73;55.64;99096.13;5054160;28;20509;-68
2022/05/13 07:16:00;;;;;;;5.00;1.58;;;;;;;21.17;57.49;99097.47;5053188;28;20025;-70
2022/05/13 07:18:25;;;;;;;5.38;1.98;;;;;;;20.56;60.13;99088.72;5053897;28;20033;-69
2022/05/13 07:20:51;;;;;;;6.68;2.38;;;;;;;20.05;61.37;99097.28;5049860;28;20044;-68
2022/05/13 07:23:17;;;;;;;8.18;2.20;;;;;;;19.86;62.94;99107.78;5051995;28;20021;-68
2022/05/13 07:25:42;;;;;;;5.63;1.98;;;;;;;19.60;64.45;99105.78;5045839;28;20433;-69
2022/05/13 07:28:07;;;;;;;4.35;2.08;;;;;;;19.46;64.51;99114.38;5050925;28;20095;-68
2022/05/13 07:30:33;;;;;;;6.40;1.92;;;;;;;19.31;65.82;99122.41;5053068;28;20032;-68
2022/05/13 07:32:58;;;;;;;5.13;1.80;;;;;;;19.44;64.00;99116.56;5051186;28;20112;-68
2022/05/13 07:35:24;;;;;;;9.07;2.15;;;;;;;19.48;63.14;99123.19;5053303;28;20120;-69
2022/05/13 07:37:49;;;;;;;7.05;2.03;;;;;;;19.65;62.55;99103.13;5053474;28;20025;-68
2022/05/13 07:42:58;;;;;;;6.65;1.80;;;;;;;19.43;62.91;99127.78;5046987;28;20078;-68
2022/05/13 07:45:24;;;;;;;8.80;2.25;;;;;;;19.36;63.81;99132.63;5020206;28;20021;-68
2022/05/13 07:47:49;;;;;;;6.05;1.63;;;;;;;19.09;63.33;99129.75;5033542;28;20021;-68
2022/05/13 07:50:14;;;;;;;5.15;1.88;;;;;;;19.09;62.79;99141.56;5035310;28;20025;-69
2022/05/13 07:52:40;;;;;;;4.00;1.70;;;;;;;18.98;63.78;99129.59;5050849;28;20029;-68
2022/05/13 07:55:15;;;;;;;9.05;1.80;;;;;;;19.14;63.00;99143.53;5053893;28;20091;-68
2022/05/13 07:57:42;;;;;;;9.30;1.50;;;;;;;19.29;61.03;99129.25;5053870;28;20017;-68
2022/05/13 08:00:26;;;;;;;9.05;1.65;;;;;;;19.69;60.62;99134.47;5052877;28;20474;-68
2022/05/13 08:03:01;;;;;;;3.70;1.33;;;;;;;20.03;59.27;99137.09;5052067;28;20398;-68
2022/05/13 08:05:31;;;;;;;9.45;1.95;;;;;;;20.60;57.00;99135.78;5053000;28;20017;-68
2022/05/13 08:08:02;;;;;;;5.90;1.35;;;;;;;20.69;56.83;99129.53;5054178;28;20398;-68
2022/05/13 08:10:28;;;;;;;4.90;1.40;;;;;;;20.81;55.24;99134.88;5052549;28;20074;-68
2022/05/13 08:12:53;;;;;;;6.78;1.48;;;;;;;21.07;54.56;99135.91;5051615;28;20072;-69
2022/05/13 08:15:19;;;;;;;4.00;1.30;;;;;;;21.32;53.81;99137.16;5052606;28;20025;-68
2022/05/13 08:17:44;;;;;;;3.88;1.38;;;;;;;21.64;54.38;99134.34;5051073;28;20099;-68
2022/05/13 08:20:10;;;;;;;6.03;1.70;;;;;;;21.84;53.59;99131.69;5051270;28;20029;-68
2022/05/13 08:22:35;;;;;;;5.85;1.42;;;;;;;22.39;53.27;99129.38;5051652;28;20031;-69
2022/05/13 08:25:01;;;;;;;4.45;1.67;;;;;;;22.63;51.76;99134.38;5051587;28;20017;-68
2022/05/13 08:27:26;;;;;;;6.00;1.50;;;;;;;23.03;51.03;99133.63;5053050;28;20035;-68
2022/05/13 08:29:51;;;;;;;5.47;1.88;;;;;;;22.91;50.22;99138.53;5052901;28;20032;-69
2022/05/13 08:32:17;;;;;;;9.73;2.08;;;;;;;22.90;50.46;99136.91;5049638;28;20389;-69
2022/05/13 08:34:42;;;;;;;10.80;2.45;;;;;;;23.18;50.12;99127.22;5026223;28;20078;-69
2022/05/13 08:37:07;;;;;;;8.82;2.03;;;;;;;23.75;48.51;99130.72;5051336;28;20020;-69
2022/05/13 08:39:32;;;;;;;6.57;2.38;;;;;;;24.03;48.44;99126.47;5052343;28;20112;-69
2022/05/13 08:42:17;;;;;;;5.40;1.85;;;;;;;24.80;46.06;99135.09;5051685;28;20029;-69
2022/05/13 08:44:43;;;;;;;3.95;1.90;;;;;;;25.21;45.15;99137.56;5049803;28;20024;-68
2022/05/13 08:47:22;;;;;;;7.25;2.00;;;;;;;25.80;43.38;99135.50;5048817;28;20055;-67
2022/05/13 08:50:00;;;;;;;6.32;1.50;;;;;;;27.92;38.46;99121.59;5184187;22;20013;-67
2022/05/13 08:55:29;;;;;;;5.35;1.23;;;;;;;27.23;39.00;99130.69;5051662;28;20440;-67
2022/05/13 08:57:57;;;;;;;5.93;1.48;;;;;;;25.74;40.26;99143.06;5047334;28;20079;-67
2022/05/13 09:00:34;;;;;;;4.53;1.27;;;;;;;24.61;42.07;99147.97;5042486;28;20947;-66
2022/05/13 09:03:40;;;;;;;7.88;1.92;;;;;;;24.92;41.83;99143.03;5031334;28;20355;-66
2022/05/13 09:06:12;;;;;;;6.82;1.17;;;;;;;25.50;42.00;99143.06;5028157;28;20034;-67
2022/05/13 09:08:38;;;;;;;5.68;1.50;;;;;;;25.99;40.51;99141.97;5030485;28;20060;-67
2022/05/13 09:11:30;;;;;;;4.82;1.10;;;;;;;27.86;35.38;99129.22;5030640;28;20056;-66
2022/05/13 09:14:34;;;;;;;10.20;1.45;;;;;;;29.35;32.91;99140.53;5023348;28;20107;-66
2022/05/13 09:17:27;;;;;;;6.00;1.30;;;;;;;30.79;31.90;99140.75;5030728;28;20026;-67
2022/05/13 09:20:00;;;;;;;3.78;1.13;;;;;;;29.25;31.88;99140.78;5030785;28;20128;-68
2022/05/13 09:22:35;;;;;;;4.03;1.10;;;;;;;26.71;34.63;99135.44;5026113;28;20505;-67
2022/05/13 09:25:01;;;;;;;4.30;1.13;;;;;;;24.83;37.76;99134.50;5024285;28;20033;-67
2022/05/13 09:27:26;;;;;;;6.65;1.45;;;;;;;22.64;40.99;99139.66;5030874;28;20029;-66
2022/05/13 09:29:51;;;;;;;11.57;1.48;;;;;;;23.14;42.94;99139.94;5031467;28;20111;-67
2022/05/13 09:32:28;;;;;;;4.60;1.50;;;;;;;23.31;42.94;99128.59;5034305;28;20013;-67
2022/05/13 09:35:13;;;;;;;5.60;1.45;;;;;;;22.92;42.71;99138.28;5035392;28;20112;-67
2022/05/13 09:37:41;;;;;;;7.03;1.30;;;;;;;24.45;41.80;99141.72;5034366;28;20083;-66
2022/05/13 09:40:21;;;;;;;2.30;0.87;;;;;;;25.51;40.30;99133.63;5034171;28;20047;-66
2022/05/13 09:42:49;;;;;;;8.18;1.33;;;;;;;27.00;38.01;99126.06;5034700;28;20025;-67
2022/05/13 09:45:27;;;;;;;8.27;1.58;;;;;;;28.13;35.78;99133.09;5050468;28;20059;-67
2022/05/13 09:48:04;;;;;;;4.15;1.23;;;;;;;27.41;36.65;99133.72;5034011;28;20025;-66
2022/05/13 09:50:34;;;;;;;5.90;1.20;;;;;;;26.74;35.71;99129.25;5024648;28;20017;-67
2022/05/13 09:53:03;;;;;;;3.40;1.02;;;;;;;25.99;38.46;99127.25;5034286;28;20025;-67
2022/05/13 09:55:35;;;;;;;5.97;1.27;;;;;;;25.18;37.98;99131.75;5035759;28;20075;-66
2022/05/13 09:58:04;;;;;;;7.20;1.48;;;;;;;23.87;39.44;99127.63;5035381;28;20100;-67
2022/05/13 10:00:38;;;;;;;6.70;1.30;;;;;;;23.53;40.46;99115.28;5029417;28;20018;-67
2022/05/13 10:03:19;;;;;;;3.30;1.13;;;;;;;23.38;41.54;99148.47;5033035;28;20116;-67
2022/05/13 10:06:01;;;;;;;6.28;1.40;;;;;;;22.91;42.84;99144.88;5025073;28;20037;-68
2022/05/13 10:08:28;;;;;;;4.47;1.17;;;;;;;23.05;43.42;99125.84;5032581;28;20585;-72
2022/05/13 10:14:03;;;;;;;3.28;1.30;;;;;;;23.04;43.13;99126.97;5032197;28;20032;-71
2022/05/13 10:16:38;;;;;;;5.50;1.10;;;;;;;23.10;41.99;99122.28;5034086;28;20048;-71
2022/05/13 10:19:13;;;;;;;4.10;1.20;;;;;;;23.29;42.86;99139.94;5026656;28;20029;-71
2022/05/13 10:21:51;;;;;;;7.65;1.60;;;;;;;24.03;41.99;99141.09;5029774;28;20029;-71
2022/05/13 10:24:25;;;;;;;4.43;0.80;;;;;;;26.37;39.00;99139.22;5032697;28;20025;-71
2022/05/13 10:26:52;;;;;;;5.82;1.10;;;;;;;27.39;35.83;99125.66;5042448;28;20066;-71
2022/05/13 10:29:30;;;;;;;6.35;1.30;;;;;;;25.83;36.86;99139.66;5034002;28;20021;-71
2022/05/13 10:31:56;;;;;;;10.55;1.50;;;;;;;28.26;33.40;99112.78;5032331;28;20030;-71
2022/05/13 10:34:25;;;;;;;4.82;1.40;;;;;;;28.88;32.60;99147.56;5033094;28;20025;-70
2022/05/13 10:37:04;;;;;;;5.43;1.80;;;;;;;30.11;30.89;99133.94;5032055;28;20033;-68
2022/05/13 10:39:44;;;;;;;4.38;1.20;;;;;;;31.56;30.56;99131.78;5033920;28;20475;-69
2022/05/13 10:42:16;;;;;;;7.60;1.50;;;;;;;32.48;27.50;99133.94;5032084;28;20060;-70
2022/05/13 10:44:48;;;;;;;3.72;1.20;;;;;;;34.08;26.57;99138.03;5036023;28;20100;-70
2022/05/13 10:47:19;;;;;;;7.03;1.10;;;;;;;32.73;27.19;99126.47;5037524;28;20029;-70
2022/05/13 10:49:45;;;;;;;7.72;1.75;;;;;;;27.24;33.48;99135.09;5030646;28;20029;-70
2022/05/13 10:52:27;;;;;;;2.75;0.93;;;;;;;30.44;29.92;99130.72;5027166;28;20088;-70
2022/05/13 10:54:52;;;;;;;5.57;1.63;;;;;;;28.08;32.64;99142.38;5033210;28;20406;-70
2022/05/13 10:57:32;;;;;;;6.47;1.27;;;;;;;29.66;30.96;99131.34;5033789;28;20037;-70
2022/05/13 11:00:11;;;;;;;5.10;1.30;;;;;;;29.12;33.58;99134.16;5029081;28;20287;-70
2022/05/13 11:03:01;;;;;;;5.00;1.13;;;;;;;30.36;31.93;99127.59;5031473;28;20021;-70
2022/05/13 11:05:29;;;;;;;5.47;1.25;;;;;;;31.78;28.72;99122.28;5033495;28;20360;-70
2022/05/13 11:08:28;;;;;;;3.92;1.20;;;;;;;30.26;30.44;99102.81;5031268;28;20025;-70
2022/05/13 11:11:13;;;;;;;5.70;1.33;;;;;;;28.59;32.57;99124.56;5031712;28;20033;-70
2022/05/13 11:13:41;;;;;;;3.22;1.10;;;;;;;26.94;34.19;99122.56;5045973;28;20051;-71
2022/05/13 11:16:15;;;;;;;8.35;1.40;;;;;;;28.38;32.72;99106.69;5029626;28;20036;-72
2022/05/13 11:19:06;;;;;;;8.55;1.38;;;;;;;30.61;31.26;99105.59;5028191;28;20391;-72
2022/05/13 11:21:56;;;;;;;4.15;1.40;;;;;;;31.44;29.34;99121.31;5028948;28;20025;-72
2022/05/13 11:28:12;;;;;;;4.55;1.33;;;;;;;29.87;30.11;99126.81;5026508;28;20043;-71
2022/05/13 11:30:47;;;;;;;3.83;1.05;;;;;;;30.92;29.51;99113.00;4982298;28;20034;-71
2022/05/13 11:33:31;;;;;;;5.53;1.65;;;;;;;31.62;29.11;99100.50;5036278;28;20478;-71
2022/05/13 11:36:20;;;;;;;3.08;1.27;;;;;;;30.84;28.93;99099.84;5023454;28;20124;-71
2022/05/13 11:38:46;;;;;;;5.25;1.50;;;;;;;30.44;29.77;99111.19;5024660;28;20437;-71
2022/05/13 11:41:21;;;;;;;4.40;1.20;;;;;;;29.89;29.72;99093.00;5050224;28;20049;-70
2022/05/13 11:43:57;;;;;;;5.15;1.40;;;;;;;29.82;30.14;99093.50;5032665;28;20298;-70
2022/05/13 11:46:32;;;;;;;5.72;1.40;;;;;;;31.17;28.89;99097.31;5032121;28;20100;-72
2022/05/13 11:49:23;;;;;;;3.42;1.35;;;;;;;32.05;27.91;99095.84;5029075;28;20040;-71
2022/05/13 11:51:48;;;;;;;3.97;1.40;;;;;;;30.55;29.16;99092.97;5020300;28;20045;-71
2022/05/13 11:54:19;;;;;;;4.60;1.50;;;;;;;28.12;33.10;99103.66;5023218;28;20028;-71
2022/05/13 11:56:46;;;;;;;7.72;1.80;;;;;;;27.46;33.73;99087.19;5029396;28;20029;-71
2022/05/13 11:59:30;;;;;;;3.80;1.52;;;;;;;26.58;35.42;99100.13;5046568;28;20372;-72
2022/05/13 12:02:07;;;;;;;4.57;1.23;;;;;;;26.91;35.52;99081.53;5030215;28;20078;-71
2022/05/13 12:04:35;;;;;;;8.95;1.70;;;;;;;26.96;35.91;99097.25;5028420;28;20009;-71
2022/05/13 12:07:24;;;;;;;4.50;1.88;;;;;;;26.18;36.54;99102.34;5031294;28;20665;-70